Lake Charles Regional Airport
KLCH : now visible

Airfield :











YOU CAN JOIN US ON...

 
LOGIN :

Register | Disclaimer

   EN    FR    IT 

 









Legend :    VFR   Marginal VFR   IFR   Intensive IFR   Very Intensive IFR
Visi :
Ceiling :
>= 8 km
>= 3000ft
5 to 8 km
1000 to 3000 ft
1500m to 5 km
500 to 1000 ft
800 to 1500m
200 to 500 ft
< 800m
< 200 ft
Symbols :   Thunderstorms  Fog  Heavy snow  Heavy precipitations  Wind > 20 kt






- Airport Elevation : 15 ft
- IATA code : LCH


KLCH - Lake Charles Regional

CURRENT METAR :
  • 181053Z AUTO 17006KT 6SM BR OVC003 21/19 A3014 RMK AO2 SLP213 T02060194

EXPIRED METARs :
  • 180953Z AUTO 16008KT 8SM OVC004 21/19 A3014 RMK AO2 SLP213 T02060194
  • 180948Z AUTO 16007KT 9SM OVC004 21/19 A3014 RMK AO2
  • 180902Z AUTO 16011KT 10SM OVC005 21/19 A3014 RMK AO2 T02060194
  • 180853Z AUTO 16009KT 10SM OVC004 21/19 A3014 RMK AO2 SLP213 T02060194 50001

TAF KLCH
Valid from the 18 at 06:00 until the 19 at 06:00 UTC


180522Z 1806/1906 14008KT P6SM VCSH BKN009 OVC022
FM180900 16005KT 4SM BR VCSH OVC009
TEMPO 1810/1814 1SM BR
FM181500 21005KT P6SM VCSH SCT009 OVC015
PROB30 1815/1818 4SM -RA BR
FM181800 21007KT P6SM -SHRA SCT015 OVC035
PROB30 1818/1824 4SM -TSRA BR BKN025CB



MET'MAP, your aeronautical weather chart ! - Copyright ORBIFLY December 2007 - Disclaimer

ORBIFLY MET'MAP TEAM :

Programming & Development : Alexandra Zaïnal
Concept & original design : Baudouin d'Aumeries
Assistance for programming : Marc-Olivier Méhu
Technical & hardware support : Manuel Goepfert

Contact : metmap@orbifly.com




SOURCES & CREDITS :

   NOAA       Earth
Advisory